Crowville, Louisiana
Current Conditions -  °F | °C
As of 3:00 PM on Friday 19 Dec 2014 (Local Time) from KMLU Reporting Station
Light Rain Light Rain  
Wind Chill: 42°   Ceiling: 7000
Heat Index: 46°   Visibility: 6mi
Dew Point: 45°   Wind: 7mph
Humidity: 96%   Direction: 80°E
Pressure: 30.15"   Gusts: NA
Location:  32.24°N, 91.59°W
Report Text: KMLU 192100Z 08006KT 6SM -RA BR SCT008 OVC070 08/07 A3015 RMK AO2 P0000 T00780072
Loading
Personal Weather Stations






























Interactive Weather Map New forecast layout! Learn more

10-Day Weather Forecast

Advertisements
Track Severe Weather on mobile